sensor_id;sensor_type;location;lat;lon;timestamp;temperature;humidity
12761;DHT22;6444;49.742;6.114;2023-03-26T00:01:45;9.00;99.90
12761;DHT22;6444;49.742;6.114;2023-03-26T00:04:11;9.20;99.90
12761;DHT22;6444;49.742;6.114;2023-03-26T00:06:38;9.10;99.90
12761;DHT22;6444;49.742;6.114;2023-03-26T00:09:06;8.70;99.90
12761;DHT22;6444;49.742;6.114;2023-03-26T00:11:32;8.70;99.90
12761;DHT22;6444;49.742;6.114;2023-03-26T00:13:59;9.00;99.90
12761;DHT22;6444;49.742;6.114;2023-03-26T00:16:26;9.00;99.90
12761;DHT22;6444;49.742;6.114;2023-03-26T00:18:53;9.60;99.90
12761;DHT22;6444;49.742;6.114;2023-03-26T00:21:20;9.50;99.90
12761;DHT22;6444;49.742;6.114;2023-03-26T00:23:49;10.10;99.90
12761;DHT22;6444;49.742;6.114;2023-03-26T00:26:16;9.40;99.90
12761;DHT22;6444;49.742;6.114;2023-03-26T00:28:43;9.40;99.90
12761;DHT22;6444;49.742;6.114;2023-03-26T00:31:13;9.60;99.90
12761;DHT22;6444;49.742;6.114;2023-03-26T00:33:40;8.90;99.90
12761;DHT22;6444;49.742;6.114;2023-03-26T00:36:10;8.80;99.90
12761;DHT22;6444;49.742;6.114;2023-03-26T00:38:33;8.60;99.90
12761;DHT22;6444;49.742;6.114;2023-03-26T00:41:00;8.80;99.90
12761;DHT22;6444;49.742;6.114;2023-03-26T00:43:29;8.90;99.90
12761;DHT22;6444;49.742;6.114;2023-03-26T00:45:56;8.70;99.90
12761;DHT22;6444;49.742;6.114;2023-03-26T00:48:22;8.50;99.90
12761;DHT22;6444;49.742;6.114;2023-03-26T00:50:49;8.50;99.90
12761;DHT22;6444;49.742;6.114;2023-03-26T00:53:16;8.30;99.90
12761;DHT22;6444;49.742;6.114;2023-03-26T00:55:43;8.10;99.90
12761;DHT22;6444;49.742;6.114;2023-03-26T00:58:10;8.20;99.90
12761;DHT22;6444;49.742;6.114;2023-03-26T01:00:44;8.10;99.90
12761;DHT22;6444;49.742;6.114;2023-03-26T01:03:12;8.10;99.90
12761;DHT22;6444;49.742;6.114;2023-03-26T01:05:45;8.10;99.90
12761;DHT22;6444;49.742;6.114;2023-03-26T01:08:50;8.30;99.90
12761;DHT22;6444;49.742;6.114;2023-03-26T01:10:49;8.50;99.90
12761;DHT22;6444;49.742;6.114;2023-03-26T01:13:22;8.50;99.90
12761;DHT22;6444;49.742;6.114;2023-03-26T01:15:48;8.20;99.90
12761;DHT22;6444;49.742;6.114;2023-03-26T01:18:14;8.10;99.90
12761;DHT22;6444;49.742;6.114;2023-03-26T01:20:41;8.60;99.90
12761;DHT22;6444;49.742;6.114;2023-03-26T01:23:08;8.50;99.90
12761;DHT22;6444;49.742;6.114;2023-03-26T01:25:36;8.60;99.90
12761;DHT22;6444;49.742;6.114;2023-03-26T01:28:01;8.80;99.90
12761;DHT22;6444;49.742;6.114;2023-03-26T01:30:49;8.90;99.90
12761;DHT22;6444;49.742;6.114;2023-03-26T01:33:25;8.90;99.90
12761;DHT22;6444;49.742;6.114;2023-03-26T01:40:55;8.20;99.90
12761;DHT22;6444;49.742;6.114;2023-03-26T01:45:56;8.50;99.90
12761;DHT22;6444;49.742;6.114;2023-03-26T01:48:29;8.80;99.90
12761;DHT22;6444;49.742;6.114;2023-03-26T01:50:55;8.50;99.90
12761;DHT22;6444;49.742;6.114;2023-03-26T01:53:21;8.40;99.90
12761;DHT22;6444;49.742;6.114;2023-03-26T01:55:53;8.50;99.90
12761;DHT22;6444;49.742;6.114;2023-03-26T01:58:28;8.70;99.90
12761;DHT22;6444;49.742;6.114;2023-03-26T02:01:11;8.80;99.90
12761;DHT22;6444;49.742;6.114;2023-03-26T02:03:37;8.80;99.90
12761;DHT22;6444;49.742;6.114;2023-03-26T02:06:08;8.70;99.90
12761;DHT22;6444;49.742;6.114;2023-03-26T02:08:49;8.80;99.90
12761;DHT22;6444;49.742;6.114;2023-03-26T02:11:13;9.10;99.90
12761;DHT22;6444;49.742;6.114;2023-03-26T02:13:42;9.10;99.90
12761;DHT22;6444;49.742;6.114;2023-03-26T02:16:10;9.20;99.90
12761;DHT22;6444;49.742;6.114;2023-03-26T02:18:35;9.20;99.90
12761;DHT22;6444;49.742;6.114;2023-03-26T02:21:03;10.10;99.90
12761;DHT22;6444;49.742;6.114;2023-03-26T02:23:29;10.10;99.90
12761;DHT22;6444;49.742;6.114;2023-03-26T02:25:55;10.50;99.90
12761;DHT22;6444;49.742;6.114;2023-03-26T02:28:22;10.20;99.90
12761;DHT22;6444;49.742;6.114;2023-03-26T02:30:49;9.60;99.90
12761;DHT22;6444;49.742;6.114;2023-03-26T02:33:16;8.80;99.90
12761;DHT22;6444;49.742;6.114;2023-03-26T02:35:43;8.80;99.90
12761;DHT22;6444;49.742;6.114;2023-03-26T02:38:10;8.60;99.90
12761;DHT22;6444;49.742;6.114;2023-03-26T02:40:37;8.50;99.90
12761;DHT22;6444;49.742;6.114;2023-03-26T02:43:03;8.50;99.90
12761;DHT22;6444;49.742;6.114;2023-03-26T02:45:30;8.40;99.90
12761;DHT22;6444;49.742;6.114;2023-03-26T02:47:57;8.30;99.90
12761;DHT22;6444;49.742;6.114;2023-03-26T02:50:24;8.60;99.90
12761;DHT22;6444;49.742;6.114;2023-03-26T02:52:51;8.50;99.90
12761;DHT22;6444;49.742;6.114;2023-03-26T02:55:17;9.10;99.90
12761;DHT22;6444;49.742;6.114;2023-03-26T02:57:47;9.50;99.90
12761;DHT22;6444;49.742;6.114;2023-03-26T03:00:13;9.20;99.90
12761;DHT22;6444;49.742;6.114;2023-03-26T03:02:40;9.00;99.90
12761;DHT22;6444;49.742;6.114;2023-03-26T03:05:07;8.70;99.90
12761;DHT22;6444;49.742;6.114;2023-03-26T03:07:33;8.40;99.90
12761;DHT22;6444;49.742;6.114;2023-03-26T03:10:00;8.10;99.90
12761;DHT22;6444;49.742;6.114;2023-03-26T03:12:27;8.20;99.90
12761;DHT22;6444;49.742;6.114;2023-03-26T03:14:54;8.30;99.90
12761;DHT22;6444;49.742;6.114;2023-03-26T03:17:21;8.30;99.90
12761;DHT22;6444;49.742;6.114;2023-03-26T03:19:47;8.40;99.90
12761;DHT22;6444;49.742;6.114;2023-03-26T03:22:14;8.30;99.90
12761;DHT22;6444;49.742;6.114;2023-03-26T03:24:41;7.90;99.90
12761;DHT22;6444;49.742;6.114;2023-03-26T03:27:08;7.90;99.90
12761;DHT22;6444;49.742;6.114;2023-03-26T03:29:34;8.10;99.90
12761;DHT22;6444;49.742;6.114;2023-03-26T03:32:01;8.10;99.90
12761;DHT22;6444;49.742;6.114;2023-03-26T03:34:28;8.00;99.90
12761;DHT22;6444;49.742;6.114;2023-03-26T03:36:54;7.90;99.90
12761;DHT22;6444;49.742;6.114;2023-03-26T03:39:21;8.10;99.90
12761;DHT22;6444;49.742;6.114;2023-03-26T03:41:48;8.40;99.90
12761;DHT22;6444;49.742;6.114;2023-03-26T03:44:14;8.50;99.90
12761;DHT22;6444;49.742;6.114;2023-03-26T03:46:41;8.60;99.90
12761;DHT22;6444;49.742;6.114;2023-03-26T03:49:10;9.00;99.90
12761;DHT22;6444;49.742;6.114;2023-03-26T03:51:37;8.80;99.90
12761;DHT22;6444;49.742;6.114;2023-03-26T03:54:04;8.80;99.90
12761;DHT22;6444;49.742;6.114;2023-03-26T03:56:31;8.80;99.90
12761;DHT22;6444;49.742;6.114;2023-03-26T03:58:58;8.60;99.90
12761;DHT22;6444;49.742;6.114;2023-03-26T04:01:25;8.40;99.90
12761;DHT22;6444;49.742;6.114;2023-03-26T04:03:52;8.30;99.90
12761;DHT22;6444;49.742;6.114;2023-03-26T04:06:18;8.60;99.90
12761;DHT22;6444;49.742;6.114;2023-03-26T04:08:45;8.50;99.90
12761;DHT22;6444;49.742;6.114;2023-03-26T04:11:12;8.70;99.90
12761;DHT22;6444;49.742;6.114;2023-03-26T04:13:38;9.10;99.90
12761;DHT22;6444;49.742;6.114;2023-03-26T04:16:05;9.10;99.90
12761;DHT22;6444;49.742;6.114;2023-03-26T04:18:31;9.60;99.90
12761;DHT22;6444;49.742;6.114;2023-03-26T04:20:58;9.30;99.90
12761;DHT22;6444;49.742;6.114;2023-03-26T04:23:25;8.80;99.90
12761;DHT22;6444;49.742;6.114;2023-03-26T04:25:52;8.80;99.90
12761;DHT22;6444;49.742;6.114;2023-03-26T04:28:26;9.50;99.90
12761;DHT22;6444;49.742;6.114;2023-03-26T04:30:51;10.10;99.90
12761;DHT22;6444;49.742;6.114;2023-03-26T04:33:17;10.50;99.90
12761;DHT22;6444;49.742;6.114;2023-03-26T04:35:44;10.70;99.90
12761;DHT22;6444;49.742;6.114;2023-03-26T04:38:10;9.80;99.90
12761;DHT22;6444;49.742;6.114;2023-03-26T04:40:37;9.80;99.90
12761;DHT22;6444;49.742;6.114;2023-03-26T04:43:04;9.60;99.90
12761;DHT22;6444;49.742;6.114;2023-03-26T04:45:30;9.10;99.90
12761;DHT22;6444;49.742;6.114;2023-03-26T04:47:58;8.70;99.90
12761;DHT22;6444;49.742;6.114;2023-03-26T04:50:24;8.70;99.90
12761;DHT22;6444;49.742;6.114;2023-03-26T04:52:51;8.00;99.90
12761;DHT22;6444;49.742;6.114;2023-03-26T04:55:28;7.80;99.90
12761;DHT22;6444;49.742;6.114;2023-03-26T04:57:55;7.70;99.90
12761;DHT22;6444;49.742;6.114;2023-03-26T05:00:20;7.70;99.90
12761;DHT22;6444;49.742;6.114;2023-03-26T05:02:47;7.80;99.90
12761;DHT22;6444;49.742;6.114;2023-03-26T05:05:17;8.40;99.90
12761;DHT22;6444;49.742;6.114;2023-03-26T05:07:44;8.30;99.90
12761;DHT22;6444;49.742;6.114;2023-03-26T05:10:14;8.10;99.90
12761;DHT22;6444;49.742;6.114;2023-03-26T05:12:40;8.00;99.90
12761;DHT22;6444;49.742;6.114;2023-03-26T05:15:07;8.40;99.90
12761;DHT22;6444;49.742;6.114;2023-03-26T05:17:34;8.60;99.90
12761;DHT22;6444;49.742;6.114;2023-03-26T05:20:01;8.50;99.90
12761;DHT22;6444;49.742;6.114;2023-03-26T05:22:28;8.50;99.90
12761;DHT22;6444;49.742;6.114;2023-03-26T05:24:55;9.10;99.90
12761;DHT22;6444;49.742;6.114;2023-03-26T05:27:22;9.10;99.90
12761;DHT22;6444;49.742;6.114;2023-03-26T05:29:48;9.50;99.90
12761;DHT22;6444;49.742;6.114;2023-03-26T05:32:15;9.60;99.90
12761;DHT22;6444;49.742;6.114;2023-03-26T05:34:42;9.10;99.90
12761;DHT22;6444;49.742;6.114;2023-03-26T05:37:09;9.10;99.90
12761;DHT22;6444;49.742;6.114;2023-03-26T05:39:36;8.60;99.90
12761;DHT22;6444;49.742;6.114;2023-03-26T05:42:02;7.80;99.90
12761;DHT22;6444;49.742;6.114;2023-03-26T05:44:30;7.60;99.90
12761;DHT22;6444;49.742;6.114;2023-03-26T05:46:56;7.60;99.90
12761;DHT22;6444;49.742;6.114;2023-03-26T05:49:23;7.60;99.90
12761;DHT22;6444;49.742;6.114;2023-03-26T05:51:50;8.00;99.90
12761;DHT22;6444;49.742;6.114;2023-03-26T05:54:17;8.00;99.90
12761;DHT22;6444;49.742;6.114;2023-03-26T05:56:43;7.70;99.90
12761;DHT22;6444;49.742;6.114;2023-03-26T05:59:10;7.90;99.90
12761;DHT22;6444;49.742;6.114;2023-03-26T06:01:37;8.30;99.90
12761;DHT22;6444;49.742;6.114;2023-03-26T06:04:03;8.60;99.90
12761;DHT22;6444;49.742;6.114;2023-03-26T06:06:30;8.60;99.90
12761;DHT22;6444;49.742;6.114;2023-03-26T06:08:57;8.90;99.90
12761;DHT22;6444;49.742;6.114;2023-03-26T06:11:23;8.80;99.90
12761;DHT22;6444;49.742;6.114;2023-03-26T06:13:50;8.60;99.90
12761;DHT22;6444;49.742;6.114;2023-03-26T06:16:16;8.20;99.90
12761;DHT22;6444;49.742;6.114;2023-03-26T06:18:43;8.30;99.90
12761;DHT22;6444;49.742;6.114;2023-03-26T06:21:10;8.00;99.90
12761;DHT22;6444;49.742;6.114;2023-03-26T06:23:37;7.90;99.90
12761;DHT22;6444;49.742;6.114;2023-03-26T06:26:04;7.40;99.90
12761;DHT22;6444;49.742;6.114;2023-03-26T06:28:31;7.30;99.90
12761;DHT22;6444;49.742;6.114;2023-03-26T06:30:58;7.20;99.90
12761;DHT22;6444;49.742;6.114;2023-03-26T06:33:24;7.80;99.90
12761;DHT22;6444;49.742;6.114;2023-03-26T06:35:52;7.50;99.90
12761;DHT22;6444;49.742;6.114;2023-03-26T06:38:18;7.50;99.90
12761;DHT22;6444;49.742;6.114;2023-03-26T06:40:45;7.50;99.90
12761;DHT22;6444;49.742;6.114;2023-03-26T06:43:12;7.40;99.90
12761;DHT22;6444;49.742;6.114;2023-03-26T06:45:39;7.60;99.90
12761;DHT22;6444;49.742;6.114;2023-03-26T06:48:06;7.60;99.90
12761;DHT22;6444;49.742;6.114;2023-03-26T06:50:32;7.40;99.90
12761;DHT22;6444;49.742;6.114;2023-03-26T06:53:00;7.40;99.90
12761;DHT22;6444;49.742;6.114;2023-03-26T06:55:26;7.40;99.90
12761;DHT22;6444;49.742;6.114;2023-03-26T06:57:53;7.60;99.90
12761;DHT22;6444;49.742;6.114;2023-03-26T07:00:20;7.60;99.90
12761;DHT22;6444;49.742;6.114;2023-03-26T07:02:47;7.60;99.90
12761;DHT22;6444;49.742;6.114;2023-03-26T07:05:13;7.50;99.90
12761;DHT22;6444;49.742;6.114;2023-03-26T07:07:41;7.80;99.90
12761;DHT22;6444;49.742;6.114;2023-03-26T07:10:08;7.70;99.90
12761;DHT22;6444;49.742;6.114;2023-03-26T07:12:34;7.20;99.90
12761;DHT22;6444;49.742;6.114;2023-03-26T07:15:01;7.40;99.90
12761;DHT22;6444;49.742;6.114;2023-03-26T07:17:28;7.60;99.90
12761;DHT22;6444;49.742;6.114;2023-03-26T07:19:55;7.30;99.90
12761;DHT22;6444;49.742;6.114;2023-03-26T07:22:22;7.30;99.90
12761;DHT22;6444;49.742;6.114;2023-03-26T07:24:49;7.20;99.90
12761;DHT22;6444;49.742;6.114;2023-03-26T07:30:20;7.20;99.90
12761;DHT22;6444;49.742;6.114;2023-03-26T07:33:07;7.10;99.90
12761;DHT22;6444;49.742;6.114;2023-03-26T07:35:45;7.10;99.90
12761;DHT22;6444;49.742;6.114;2023-03-26T07:40:52;7.70;99.90
12761;DHT22;6444;49.742;6.114;2023-03-26T07:45:49;7.60;99.90
12761;DHT22;6444;49.742;6.114;2023-03-26T07:48:23;7.50;99.90
12761;DHT22;6444;49.742;6.114;2023-03-26T07:50:52;7.40;99.90
12761;DHT22;6444;49.742;6.114;2023-03-26T07:53:18;7.50;99.90
12761;DHT22;6444;49.742;6.114;2023-03-26T07:56:18;8.00;99.90
12761;DHT22;6444;49.742;6.114;2023-03-26T07:59:04;7.90;99.90
12761;DHT22;6444;49.742;6.114;2023-03-26T08:07:28;7.60;99.90
12761;DHT22;6444;49.742;6.114;2023-03-26T08:13:05;7.50;99.90
12761;DHT22;6444;49.742;6.114;2023-03-26T08:16:13;7.60;99.90
12761;DHT22;6444;49.742;6.114;2023-03-26T08:20:41;7.70;99.90
12761;DHT22;6444;49.742;6.114;2023-03-26T08:28:28;8.40;99.90
12761;DHT22;6444;49.742;6.114;2023-03-26T08:30:50;8.30;99.90
12761;DHT22;6444;49.742;6.114;2023-03-26T08:33:18;8.70;99.90
12761;DHT22;6444;49.742;6.114;2023-03-26T08:35:44;8.90;99.90
12761;DHT22;6444;49.742;6.114;2023-03-26T08:38:11;8.90;99.90
12761;DHT22;6444;49.742;6.114;2023-03-26T08:49:08;8.90;99.90
12761;DHT22;6444;49.742;6.114;2023-03-26T08:52:06;10.10;99.90
12761;DHT22;6444;49.742;6.114;2023-03-26T09:00:11;10.30;99.90
12761;DHT22;6444;49.742;6.114;2023-03-26T09:11:06;10.80;99.90
12761;DHT22;6444;49.742;6.114;2023-03-26T09:29:50;10.10;99.90
12761;DHT22;6444;49.742;6.114;2023-03-26T09:32:24;10.30;99.90
12761;DHT22;6444;49.742;6.114;2023-03-26T09:42:54;10.10;99.90
12761;DHT22;6444;49.742;6.114;2023-03-26T09:58:55;10.50;99.90
12761;DHT22;6444;49.742;6.114;2023-03-26T10:01:38;10.40;99.90
12761;DHT22;6444;49.742;6.114;2023-03-26T10:07:14;10.10;99.90
12761;DHT22;6444;49.742;6.114;2023-03-26T10:14:53;10.30;99.90
12761;DHT22;6444;49.742;6.114;2023-03-26T10:23:07;10.90;99.90
12761;DHT22;6444;49.742;6.114;2023-03-26T10:25:42;11.10;99.90
12761;DHT22;6444;49.742;6.114;2023-03-26T10:28:34;11.10;99.90
12761;DHT22;6444;49.742;6.114;2023-03-26T10:31:16;11.00;99.90
12761;DHT22;6444;49.742;6.114;2023-03-26T10:33:49;12.10;99.90
12761;DHT22;6444;49.742;6.114;2023-03-26T10:39:21;12.50;99.90
12761;DHT22;6444;49.742;6.114;2023-03-26T10:47:40;12.30;99.90
12761;DHT22;6444;49.742;6.114;2023-03-26T10:52:48;11.70;99.90
12761;DHT22;6444;49.742;6.114;2023-03-26T10:55:13;12.90;99.90
12761;DHT22;6444;49.742;6.114;2023-03-26T11:00:20;11.90;99.90
12761;DHT22;6444;49.742;6.114;2023-03-26T11:02:53;11.20;99.90
12761;DHT22;6444;49.742;6.114;2023-03-26T11:05:31;10.60;99.90
12761;DHT22;6444;49.742;6.114;2023-03-26T11:07:58;9.80;99.90
12761;DHT22;6444;49.742;6.114;2023-03-26T11:18:29;10.30;99.90
12761;DHT22;6444;49.742;6.114;2023-03-26T11:21:15;11.20;99.90
12761;DHT22;6444;49.742;6.114;2023-03-26T11:23:58;12.20;99.90
12761;DHT22;6444;49.742;6.114;2023-03-26T11:29:02;13.80;99.90
12761;DHT22;6444;49.742;6.114;2023-03-26T11:32:02;13.80;99.90
12761;DHT22;6444;49.742;6.114;2023-03-26T11:34:28;13.70;99.90
12761;DHT22;6444;49.742;6.114;2023-03-26T11:36:53;13.50;99.90
12761;DHT22;6444;49.742;6.114;2023-03-26T11:39:21;13.60;99.90
12761;DHT22;6444;49.742;6.114;2023-03-26T11:41:46;13.20;99.90
12761;DHT22;6444;49.742;6.114;2023-03-26T11:44:18;13.30;99.90
12761;DHT22;6444;49.742;6.114;2023-03-26T11:46:43;13.90;99.90
12761;DHT22;6444;49.742;6.114;2023-03-26T11:49:10;13.80;99.90
12761;DHT22;6444;49.742;6.114;2023-03-26T11:51:36;13.70;99.90
12761;DHT22;6444;49.742;6.114;2023-03-26T11:54:03;13.40;99.90
12761;DHT22;6444;49.742;6.114;2023-03-26T11:56:34;13.00;99.90
12761;DHT22;6444;49.742;6.114;2023-03-26T11:59:15;12.90;99.90
12761;DHT22;6444;49.742;6.114;2023-03-26T12:01:48;13.40;99.90
12761;DHT22;6444;49.742;6.114;2023-03-26T12:04:14;12.80;99.90
12761;DHT22;6444;49.742;6.114;2023-03-26T12:06:50;12.90;99.90
12761;DHT22;6444;49.742;6.114;2023-03-26T12:09:18;12.70;99.90
12761;DHT22;6444;49.742;6.114;2023-03-26T12:11:45;13.00;99.90
12761;DHT22;6444;49.742;6.114;2023-03-26T12:14:19;12.90;99.90
12761;DHT22;6444;49.742;6.114;2023-03-26T12:17:03;13.10;99.90
12761;DHT22;6444;49.742;6.114;2023-03-26T12:19:41;12.60;99.90
12761;DHT22;6444;49.742;6.114;2023-03-26T12:22:30;12.00;99.90
12761;DHT22;6444;49.742;6.114;2023-03-26T12:24:59;12.00;99.90
12761;DHT22;6444;49.742;6.114;2023-03-26T12:30:10;12.70;99.90
12761;DHT22;6444;49.742;6.114;2023-03-26T12:32:38;12.50;99.90
12761;DHT22;6444;49.742;6.114;2023-03-26T12:35:05;12.20;99.90
12761;DHT22;6444;49.742;6.114;2023-03-26T12:37:35;11.70;99.90
12761;DHT22;6444;49.742;6.114;2023-03-26T12:42:33;11.40;99.90
12761;DHT22;6444;49.742;6.114;2023-03-26T12:44:59;11.60;99.90
12761;DHT22;6444;49.742;6.114;2023-03-26T12:47:27;11.70;99.90
12761;DHT22;6444;49.742;6.114;2023-03-26T12:49:53;12.00;99.90
12761;DHT22;6444;49.742;6.114;2023-03-26T12:52:36;12.30;99.90
12761;DHT22;6444;49.742;6.114;2023-03-26T12:55:20;12.20;99.90
12761;DHT22;6444;49.742;6.114;2023-03-26T12:57:52;13.20;99.90
12761;DHT22;6444;49.742;6.114;2023-03-26T13:11:07;12.90;99.90
12761;DHT22;6444;49.742;6.114;2023-03-26T13:17:55;12.80;99.90
12761;DHT22;6444;49.742;6.114;2023-03-26T13:19:33;12.80;99.90
12761;DHT22;6444;49.742;6.114;2023-03-26T13:22:19;12.80;99.90
12761;DHT22;6444;49.742;6.114;2023-03-26T13:25:03;12.90;99.90
12761;DHT22;6444;49.742;6.114;2023-03-26T13:30:20;12.40;99.90
12761;DHT22;6444;49.742;6.114;2023-03-26T13:32:59;13.00;99.90
12761;DHT22;6444;49.742;6.114;2023-03-26T13:35:35;13.30;99.90
12761;DHT22;6444;49.742;6.114;2023-03-26T13:38:10;13.30;99.90
12761;DHT22;6444;49.742;6.114;2023-03-26T13:40:41;13.50;99.90
12761;DHT22;6444;49.742;6.114;2023-03-26T13:45:57;12.70;99.90
12761;DHT22;6444;49.742;6.114;2023-03-26T13:48:25;13.20;99.90
12761;DHT22;6444;49.742;6.114;2023-03-26T13:50:59;11.80;99.90
12761;DHT22;6444;49.742;6.114;2023-03-26T13:53:24;10.10;99.90
12761;DHT22;6444;49.742;6.114;2023-03-26T13:55:56;8.50;99.90
12761;DHT22;6444;49.742;6.114;2023-03-26T14:03:50;7.70;99.90
12761;DHT22;6444;49.742;6.114;2023-03-26T14:06:31;7.70;99.90
12761;DHT22;6444;49.742;6.114;2023-03-26T14:09:16;7.80;99.90
12761;DHT22;6444;49.742;6.114;2023-03-26T14:11:57;8.00;99.90
12761;DHT22;6444;49.742;6.114;2023-03-26T14:14:31;8.30;99.90
12761;DHT22;6444;49.742;6.114;2023-03-26T14:16:56;8.10;99.90
12761;DHT22;6444;49.742;6.114;2023-03-26T14:22:45;8.20;99.90
12761;DHT22;6444;49.742;6.114;2023-03-26T14:25:26;8.40;99.90
12761;DHT22;6444;49.742;6.114;2023-03-26T14:28:01;8.50;99.90
12761;DHT22;6444;49.742;6.114;2023-03-26T14:33:20;9.30;99.90
12761;DHT22;6444;49.742;6.114;2023-03-26T14:35:50;9.80;99.90
12761;DHT22;6444;49.742;6.114;2023-03-26T14:41:21;10.50;99.90
12761;DHT22;6444;49.742;6.114;2023-03-26T14:46:43;10.30;99.90
12761;DHT22;6444;49.742;6.114;2023-03-26T14:49:28;10.60;99.90
12761;DHT22;6444;49.742;6.114;2023-03-26T14:51:57;10.90;99.90
12761;DHT22;6444;49.742;6.114;2023-03-26T14:54:24;11.20;99.90
12761;DHT22;6444;49.742;6.114;2023-03-26T14:57:20;10.90;99.90
12761;DHT22;6444;49.742;6.114;2023-03-26T14:59:51;10.90;99.90
12761;DHT22;6444;49.742;6.114;2023-03-26T15:10:35;11.70;99.90
12761;DHT22;6444;49.742;6.114;2023-03-26T15:12:59;11.30;99.90
12761;DHT22;6444;49.742;6.114;2023-03-26T15:21:17;10.10;99.90
12761;DHT22;6444;49.742;6.114;2023-03-26T15:23:56;10.40;99.90
12761;DHT22;6444;49.742;6.114;2023-03-26T15:26:26;10.80;99.90
12761;DHT22;6444;49.742;6.114;2023-03-26T15:31:58;10.70;99.90
12761;DHT22;6444;49.742;6.114;2023-03-26T15:40:55;10.90;99.90
12761;DHT22;6444;49.742;6.114;2023-03-26T15:43:20;10.90;99.90
12761;DHT22;6444;49.742;6.114;2023-03-26T15:49:13;10.40;99.90
12761;DHT22;6444;49.742;6.114;2023-03-26T15:51:32;10.60;99.90
12761;DHT22;6444;49.742;6.114;2023-03-26T15:54:07;10.70;99.90
12761;DHT22;6444;49.742;6.114;2023-03-26T16:10:54;9.60;99.90
12761;DHT22;6444;49.742;6.114;2023-03-26T16:13:26;9.70;99.90
12761;DHT22;6444;49.742;6.114;2023-03-26T16:15:52;9.80;99.90
12761;DHT22;6444;49.742;6.114;2023-03-26T16:18:24;9.90;99.90
12761;DHT22;6444;49.742;6.114;2023-03-26T16:20:46;10.10;99.90
12761;DHT22;6444;49.742;6.114;2023-03-26T16:23:28;10.20;99.90
12761;DHT22;6444;49.742;6.114;2023-03-26T16:28:38;10.40;99.90
12761;DHT22;6444;49.742;6.114;2023-03-26T16:33:37;10.60;99.90
12761;DHT22;6444;49.742;6.114;2023-03-26T16:41:25;10.50;99.90
12761;DHT22;6444;49.742;6.114;2023-03-26T16:49:34;10.50;99.90
12761;DHT22;6444;49.742;6.114;2023-03-26T16:52:03;10.50;99.90
12761;DHT22;6444;49.742;6.114;2023-03-26T16:57:27;10.00;99.90
12761;DHT22;6444;49.742;6.114;2023-03-26T17:03:30;9.80;99.90
12761;DHT22;6444;49.742;6.114;2023-03-26T17:11:25;10.70;99.90
12761;DHT22;6444;49.742;6.114;2023-03-26T17:14:21;10.50;99.90
12761;DHT22;6444;49.742;6.114;2023-03-26T17:16:48;10.50;99.90
12761;DHT22;6444;49.742;6.114;2023-03-26T17:19:28;10.10;99.90
12761;DHT22;6444;49.742;6.114;2023-03-26T17:27:25;10.20;99.90
12761;DHT22;6444;49.742;6.114;2023-03-26T17:30:01;10.30;99.90
12761;DHT22;6444;49.742;6.114;2023-03-26T17:33:05;9.60;99.90
12761;DHT22;6444;49.742;6.114;2023-03-26T17:38:00;9.50;99.90
12761;DHT22;6444;49.742;6.114;2023-03-26T17:40:44;9.70;99.90
12761;DHT22;6444;49.742;6.114;2023-03-26T17:43:10;9.70;99.90
12761;DHT22;6444;49.742;6.114;2023-03-26T17:45:39;9.40;99.90
12761;DHT22;6444;49.742;6.114;2023-03-26T17:48:07;9.40;99.90
12761;DHT22;6444;49.742;6.114;2023-03-26T17:50:47;9.70;99.90
12761;DHT22;6444;49.742;6.114;2023-03-26T17:53:30;10.40;99.90
12761;DHT22;6444;49.742;6.114;2023-03-26T17:55:40;10.50;99.90
12761;DHT22;6444;49.742;6.114;2023-03-26T17:58:19;10.30;99.90
12761;DHT22;6444;49.742;6.114;2023-03-26T18:00:42;10.30;99.90
12761;DHT22;6444;49.742;6.114;2023-03-26T18:03:19;10.40;99.90
12761;DHT22;6444;49.742;6.114;2023-03-26T18:05:44;10.30;99.90
12761;DHT22;6444;49.742;6.114;2023-03-26T18:16:15;10.70;99.90
12761;DHT22;6444;49.742;6.114;2023-03-26T18:21:34;10.60;99.90
12761;DHT22;6444;49.742;6.114;2023-03-26T18:24:00;10.50;99.90
12761;DHT22;6444;49.742;6.114;2023-03-26T18:26:36;10.90;99.90
12761;DHT22;6444;49.742;6.114;2023-03-26T18:29:24;10.80;99.90
12761;DHT22;6444;49.742;6.114;2023-03-26T18:31:56;10.20;99.90
12761;DHT22;6444;49.742;6.114;2023-03-26T18:34:19;10.20;99.90
12761;DHT22;6444;49.742;6.114;2023-03-26T18:36:50;10.50;99.90
12761;DHT22;6444;49.742;6.114;2023-03-26T18:39:12;10.60;99.90
12761;DHT22;6444;49.742;6.114;2023-03-26T18:41:39;10.80;99.90
12761;DHT22;6444;49.742;6.114;2023-03-26T18:44:06;11.00;99.90
12761;DHT22;6444;49.742;6.114;2023-03-26T18:46:32;10.90;99.90
12761;DHT22;6444;49.742;6.114;2023-03-26T18:49:01;10.60;99.90
12761;DHT22;6444;49.742;6.114;2023-03-26T18:51:28;10.20;99.90
12761;DHT22;6444;49.742;6.114;2023-03-26T18:53:55;10.50;99.90
12761;DHT22;6444;49.742;6.114;2023-03-26T18:56:40;10.30;99.90
12761;DHT22;6444;49.742;6.114;2023-03-26T18:59:16;10.50;99.90
12761;DHT22;6444;49.742;6.114;2023-03-26T19:01:33;10.90;99.90
12761;DHT22;6444;49.742;6.114;2023-03-26T19:04:03;10.90;99.90
12761;DHT22;6444;49.742;6.114;2023-03-26T19:06:26;10.80;99.90
12761;DHT22;6444;49.742;6.114;2023-03-26T19:08:52;10.80;99.90
12761;DHT22;6444;49.742;6.114;2023-03-26T19:11:19;11.00;99.90
12761;DHT22;6444;49.742;6.114;2023-03-26T19:13:49;11.20;99.90
12761;DHT22;6444;49.742;6.114;2023-03-26T19:16:22;11.50;99.90
12761;DHT22;6444;49.742;6.114;2023-03-26T19:18:46;11.50;99.90
12761;DHT22;6444;49.742;6.114;2023-03-26T19:21:12;11.50;99.90
12761;DHT22;6444;49.742;6.114;2023-03-26T19:23:39;11.60;99.90
12761;DHT22;6444;49.742;6.114;2023-03-26T19:26:06;11.70;99.90
12761;DHT22;6444;49.742;6.114;2023-03-26T19:28:39;11.80;99.90
12761;DHT22;6444;49.742;6.114;2023-03-26T19:31:18;11.80;99.90
12761;DHT22;6444;49.742;6.114;2023-03-26T19:33:40;11.50;99.90
12761;DHT22;6444;49.742;6.114;2023-03-26T19:38:43;11.20;99.90
12761;DHT22;6444;49.742;6.114;2023-03-26T19:41:30;10.70;99.90
12761;DHT22;6444;49.742;6.114;2023-03-26T19:44:00;10.20;99.90
12761;DHT22;6444;49.742;6.114;2023-03-26T19:46:27;10.20;99.90
12761;DHT22;6444;49.742;6.114;2023-03-26T19:48:54;10.50;99.90
12761;DHT22;6444;49.742;6.114;2023-03-26T19:51:32;10.70;99.90
12761;DHT22;6444;49.742;6.114;2023-03-26T19:53:58;11.00;99.90
12761;DHT22;6444;49.742;6.114;2023-03-26T19:56:24;10.70;99.90
12761;DHT22;6444;49.742;6.114;2023-03-26T19:58:51;10.70;99.90
12761;DHT22;6444;49.742;6.114;2023-03-26T20:01:18;10.60;99.90
12761;DHT22;6444;49.742;6.114;2023-03-26T20:03:45;10.30;99.90
12761;DHT22;6444;49.742;6.114;2023-03-26T20:06:11;10.60;99.90
12761;DHT22;6444;49.742;6.114;2023-03-26T20:08:37;10.80;99.90
12761;DHT22;6444;49.742;6.114;2023-03-26T20:11:04;10.60;99.90
12761;DHT22;6444;49.742;6.114;2023-03-26T20:13:31;10.30;99.90
12761;DHT22;6444;49.742;6.114;2023-03-26T20:18:39;10.30;99.90
12761;DHT22;6444;49.742;6.114;2023-03-26T20:21:12;10.30;99.90
12761;DHT22;6444;49.742;6.114;2023-03-26T20:23:39;10.50;99.90
12761;DHT22;6444;49.742;6.114;2023-03-26T20:26:08;10.60;99.90
12761;DHT22;6444;49.742;6.114;2023-03-26T20:28:31;10.90;99.90
12761;DHT22;6444;49.742;6.114;2023-03-26T20:30:58;10.90;99.90
12761;DHT22;6444;49.742;6.114;2023-03-26T20:33:25;10.80;99.90
12761;DHT22;6444;49.742;6.114;2023-03-26T20:35:54;10.50;99.90
12761;DHT22;6444;49.742;6.114;2023-03-26T20:38:21;10.70;99.90